Time;durP1;ratioP1;P1;durP2;ratioP2;P2;SDS_P1;SDS_P2;PMS_P1;PMS_P2;Temp;Humidity;BMP_temperature;BMP_pressure;BME280_temperature;BME280_humidity;BME280_pressure;Samples;Min_cycle;Max_cycle;Signal;HPM_P1;HPM_P2
2023/11/23 00:00:53;;;;;;;4.53;2.90;;;;;;;11.32;100.00;102223.09;2097019;28;20899;-67
2023/11/23 00:01:54;;;;;;;3.40;2.43;;;;;;;11.26;100.00;102214.38;2096673;28;20195;-67
2023/11/23 00:02:54;;;;;;;4.17;2.67;;;;;;;11.27;100.00;102218.72;2096829;28;20192;-67
2023/11/23 00:03:55;;;;;;;5.07;2.97;;;;;;;11.29;100.00;102221.91;2096733;28;20215;-67
2023/11/23 00:04:55;;;;;;;4.17;2.80;;;;;;;11.33;100.00;102221.91;2096414;28;20184;-67
2023/11/23 00:05:56;;;;;;;3.10;2.30;;;;;;;11.28;100.00;102225.06;2096786;28;20641;-67
2023/11/23 00:06:56;;;;;;;4.57;2.63;;;;;;;11.32;100.00;102231.44;2097793;28;20180;-67
2023/11/23 00:07:58;;;;;;;4.60;2.93;;;;;;;11.31;100.00;102229.81;2097184;28;20208;-68
2023/11/23 00:08:58;;;;;;;4.80;2.87;;;;;;;11.28;100.00;102230.63;2089710;28;20638;-67
2023/11/23 00:09:59;;;;;;;4.20;2.80;;;;;;;10.76;100.00;102179.53;2093912;28;20461;-68
2023/11/23 00:10:59;;;;;;;3.90;2.53;;;;;;;11.08;100.00;102229.44;2096807;28;20278;-67
2023/11/23 00:12:00;;;;;;;4.43;2.83;;;;;;;11.17;100.00;102241.72;2097038;28;20309;-68
2023/11/23 00:13:00;;;;;;;4.53;3.00;;;;;;;11.23;100.00;102236.59;2096681;28;20183;-68
2023/11/23 00:14:01;;;;;;;6.33;3.17;;;;;;;11.04;100.00;102220.34;2096611;28;20261;-67
2023/11/23 00:15:02;;;;;;;4.30;2.73;;;;;;;11.06;100.00;102240.94;2097676;28;20266;-67
2023/11/23 00:16:02;;;;;;;3.67;2.53;;;;;;;11.16;100.00;102242.91;2096800;28;20190;-67
2023/11/23 00:17:03;;;;;;;4.77;3.30;;;;;;;11.19;100.00;102249.66;2089892;28;20202;-68
2023/11/23 00:18:03;;;;;;;4.93;3.20;;;;;;;11.19;100.00;102256.00;2088023;28;20282;-67
2023/11/23 00:19:05;;;;;;;4.57;2.60;;;;;;;11.21;100.00;102255.59;2098962;28;20202;-67
2023/11/23 00:20:06;;;;;;;5.27;3.27;;;;;;;11.15;100.00;102252.44;2104469;28;20171;-67
2023/11/23 00:21:06;;;;;;;6.03;3.60;;;;;;;11.10;100.00;102250.06;2096776;28;20437;-67
2023/11/23 00:22:07;;;;;;;6.13;3.17;;;;;;;11.13;100.00;102262.34;2096730;28;20457;-67
2023/11/23 00:23:07;;;;;;;4.30;2.90;;;;;;;10.98;100.00;102253.25;2097594;28;20267;-67
2023/11/23 00:24:08;;;;;;;5.03;2.70;;;;;;;10.85;100.00;102252.03;2096552;28;20656;-67
2023/11/23 00:25:11;;;;;;;4.23;3.00;;;;;;;10.89;100.00;102250.06;2096902;28;20291;-67
2023/11/23 00:26:13;;;;;;;6.23;3.40;;;;;;;10.60;100.00;102203.31;2096830;28;20183;-67
2023/11/23 00:27:17;;;;;;;5.07;2.97;;;;;;;10.92;100.00;102254.03;2096685;28;20829;-67
2023/11/23 00:28:18;;;;;;;4.27;2.83;;;;;;;10.92;100.00;102262.34;2096671;28;20456;-68
2023/11/23 00:29:20;;;;;;;5.60;3.23;;;;;;;10.93;100.00;102255.59;2095767;28;20420;-68
2023/11/23 00:30:20;;;;;;;3.50;2.60;;;;;;;10.90;100.00;102257.19;2096011;28;20420;-67
2023/11/23 00:31:22;;;;;;;4.60;2.90;;;;;;;10.97;100.00;102259.19;2089276;28;20505;-67
2023/11/23 00:32:22;;;;;;;5.47;2.87;;;;;;;10.96;100.00;102263.16;2096541;28;20467;-68
2023/11/23 00:33:23;;;;;;;5.13;3.17;;;;;;;11.00;100.00;102261.16;2095642;28;20603;-68
2023/11/23 00:34:24;;;;;;;3.83;2.57;;;;;;;10.96;100.00;102263.94;2096492;28;20188;-67
2023/11/23 00:35:24;;;;;;;4.10;2.90;;;;;;;10.97;100.00;102259.97;2096626;28;20223;-67
2023/11/23 00:36:24;;;;;;;3.73;2.63;;;;;;;10.95;100.00;102250.44;2096609;28;20564;-68
2023/11/23 00:37:25;;;;;;;3.57;2.63;;;;;;;10.98;100.00;102269.88;2096403;28;20211;-67
2023/11/23 00:38:25;;;;;;;4.20;2.70;;;;;;;10.97;100.00;102253.63;2096487;28;20179;-68
2023/11/23 00:39:27;;;;;;;4.60;2.80;;;;;;;11.04;100.00;102270.28;2097072;28;20255;-67
2023/11/23 00:40:27;;;;;;;4.57;3.10;;;;;;;11.05;100.00;102269.88;2096745;28;20200;-67
2023/11/23 00:41:28;;;;;;;4.43;2.70;;;;;;;11.03;100.00;102266.72;2096525;28;20452;-67
2023/11/23 00:42:28;;;;;;;5.83;3.13;;;;;;;11.02;100.00;102276.22;2096902;28;20207;-68
2023/11/23 00:43:29;;;;;;;4.70;2.80;;;;;;;10.38;100.00;102173.94;2092320;28;20184;-67
2023/11/23 00:44:31;;;;;;;3.90;2.97;;;;;;;10.27;100.00;102182.25;2090109;28;20219;-68
2023/11/23 00:45:31;;;;;;;4.43;2.97;;;;;;;10.92;100.00;102276.22;2096525;28;20182;-67
2023/11/23 00:46:35;;;;;;;4.67;3.17;;;;;;;10.94;100.00;102276.59;2096923;28;20908;-67
2023/11/23 00:47:35;;;;;;;4.17;2.60;;;;;;;10.83;100.00;102278.56;2096919;28;20190;-68
2023/11/23 00:48:36;;;;;;;3.93;3.03;;;;;;;10.86;100.00;102280.56;2096638;28;20449;-68
2023/11/23 00:49:36;;;;;;;5.27;2.97;;;;;;;10.85;100.00;102279.78;2096594;28;20275;-68
2023/11/23 00:50:37;;;;;;;4.53;3.20;;;;;;;10.79;100.00;102280.53;2096191;28;20563;-68
2023/11/23 00:51:37;;;;;;;4.30;2.90;;;;;;;10.78;100.00;102287.28;2096503;28;20196;-67
2023/11/23 00:52:38;;;;;;;4.43;3.00;;;;;;;10.51;100.00;102267.41;2096409;28;20255;-67
2023/11/23 00:53:38;;;;;;;5.10;2.93;;;;;;;10.60;100.00;102295.56;2095901;28;20191;-67
2023/11/23 00:54:39;;;;;;;4.20;3.30;;;;;;;10.59;100.00;102285.66;2096866;28;20175;-67
2023/11/23 00:55:40;;;;;;;5.43;3.07;;;;;;;10.49;100.00;102285.63;2095609;28;20274;-67
2023/11/23 00:56:40;;;;;;;4.20;2.70;;;;;;;10.57;100.00;102290.81;2095045;28;20449;-68
2023/11/23 00:57:41;;;;;;;4.43;2.80;;;;;;;10.51;100.00;102291.59;2095834;28;20187;-67
2023/11/23 00:58:41;;;;;;;5.50;3.10;;;;;;;10.52;100.00;102293.16;2091605;28;20194;-67
2023/11/23 00:59:42;;;;;;;4.77;2.70;;;;;;;10.56;100.00;102291.22;2090931;28;20655;-68
2023/11/23 01:00:43;;;;;;;4.43;2.80;;;;;;;10.61;100.00;102288.81;2095992;28;20175;-67
2023/11/23 01:01:44;;;;;;;5.33;3.10;;;;;;;10.68;100.00;102290.84;2096194;28;20210;-67
2023/11/23 01:02:46;;;;;;;6.30;3.53;;;;;;;10.70;100.00;102294.78;2097566;28;20950;-67
2023/11/23 01:03:46;;;;;;;4.33;2.77;;;;;;;10.57;100.00;102270.59;2096086;28;20525;-68
2023/11/23 01:04:48;;;;;;;3.97;3.00;;;;;;;10.80;100.00;102302.34;2096474;28;20458;-67
2023/11/23 01:05:48;;;;;;;4.30;3.00;;;;;;;10.80;100.00;102299.56;2096508;28;20195;-67
2023/11/23 01:06:48;;;;;;;4.27;2.87;;;;;;;10.80;100.00;102302.34;2096033;28;20494;-67
2023/11/23 01:07:49;;;;;;;4.80;2.87;;;;;;;10.25;100.00;102225.41;2096541;28;20254;-67
2023/11/23 01:08:49;;;;;;;4.50;2.97;;;;;;;10.41;100.00;102268.19;2095608;28;20202;-67
2023/11/23 01:09:50;;;;;;;4.73;3.17;;;;;;;10.79;100.00;102308.28;2096616;28;20551;-67
2023/11/23 01:10:52;;;;;;;5.53;3.13;;;;;;;10.75;100.00;102304.69;2088960;28;20199;-67
2023/11/23 01:11:54;;;;;;;4.90;3.03;;;;;;;10.67;100.00;102303.13;2095679;28;20229;-67
2023/11/23 01:12:54;;;;;;;5.27;3.17;;;;;;;10.62;100.00;102309.84;2096500;28;20453;-67
2023/11/23 01:13:55;;;;;;;5.70;3.30;;;;;;;10.57;100.00;102304.69;2096236;28;20540;-67
2023/11/23 01:14:55;;;;;;;4.47;2.80;;;;;;;10.57;100.00;102313.00;2095577;28;20195;-67
2023/11/23 01:15:56;;;;;;;4.50;3.07;;;;;;;10.57;100.00;102312.19;2096559;28;20206;-67
2023/11/23 01:16:57;;;;;;;3.83;2.33;;;;;;;10.59;100.00;102307.03;2095716;28;20187;-67
2023/11/23 01:17:58;;;;;;;4.37;3.00;;;;;;;10.60;100.00;102306.66;2097341;28;20791;-67
2023/11/23 01:18:58;;;;;;;4.80;3.20;;;;;;;10.64;100.00;102301.91;2096182;28;20296;-68
2023/11/23 01:19:59;;;;;;;4.77;3.03;;;;;;;10.63;100.00;102297.56;2096690;28;20453;-67
2023/11/23 01:20:59;;;;;;;3.80;3.00;;;;;;;10.66;100.00;102299.53;2096498;28;20191;-67
2023/11/23 01:22:00;;;;;;;3.87;2.90;;;;;;;10.66;100.00;102294.00;2096291;28;20206;-67
2023/11/23 01:23:00;;;;;;;5.00;3.00;;;;;;;10.68;100.00;102299.94;2095776;28;20199;-67
2023/11/23 01:24:01;;;;;;;4.80;3.10;;;;;;;10.68;100.00;102297.19;2096159;28;20199;-67
2023/11/23 01:25:06;;;;;;;5.20;3.23;;;;;;;10.42;100.00;102271.75;2096257;28;20180;-67
2023/11/23 01:26:07;;;;;;;3.97;2.90;;;;;;;10.47;100.00;102285.22;2097327;28;20613;-67
2023/11/23 01:27:07;;;;;;;4.50;3.10;;;;;;;10.57;100.00;102309.41;2096384;28;20494;-67
2023/11/23 01:28:08;;;;;;;4.07;2.90;;;;;;;10.59;100.00;102307.84;2096145;28;20195;-67
2023/11/23 01:29:08;;;;;;;4.43;2.90;;;;;;;10.56;100.00;102294.75;2096084;28;20199;-67
2023/11/23 01:30:09;;;;;;;5.50;3.57;;;;;;;9.61;100.00;102151.53;2096459;28;20195;-67
2023/11/23 01:31:10;;;;;;;5.17;3.07;;;;;;;10.57;100.00;102306.66;2093041;28;20241;-67
2023/11/23 01:32:10;;;;;;;5.97;3.30;;;;;;;10.52;100.00;102296.75;2090380;28;20413;-67
2023/11/23 01:33:11;;;;;;;6.40;3.60;;;;;;;10.58;100.00;102308.22;2096180;28;20556;-67
2023/11/23 01:34:12;;;;;;;4.87;3.23;;;;;;;10.58;100.00;102308.22;2097014;28;20198;-68
2023/11/23 01:35:12;;;;;;;4.47;2.80;;;;;;;10.56;100.00;102305.84;2096409;28;20470;-67
2023/11/23 01:36:13;;;;;;;4.60;3.17;;;;;;;10.49;100.00;102289.19;2090032;28;20664;-67
2023/11/23 01:37:13;;;;;;;5.00;3.10;;;;;;;10.58;100.00;102300.72;2092864;28;20198;-67
2023/11/23 01:38:14;;;;;;;5.97;3.57;;;;;;;10.62;100.00;102309.03;2092144;28;20195;-67
2023/11/23 01:39:14;;;;;;;4.43;2.87;;;;;;;10.63;100.00;102305.06;2090220;28;20180;-68
2023/11/23 01:40:16;;;;;;;4.33;3.00;;;;;;;10.66;100.00;102304.31;2096240;28;20212;-67
2023/11/23 01:41:17;;;;;;;4.17;2.90;;;;;;;10.64;100.00;102307.47;2096116;28;20210;-67
2023/11/23 01:42:17;;;;;;;5.03;3.40;;;;;;;10.67;100.00;102300.34;2096807;28;20428;-67
2023/11/23 01:43:18;;;;;;;4.70;3.20;;;;;;;10.67;100.00;102303.88;2096021;28;20256;-67
2023/11/23 01:44:20;;;;;;;4.67;3.33;;;;;;;10.72;100.00;102303.50;2096297;28;20226;-67
2023/11/23 01:45:22;;;;;;;5.47;3.37;;;;;;;10.76;100.00;102301.53;2095843;28;20752;-67
2023/11/23 01:46:22;;;;;;;6.13;3.20;;;;;;;10.75;100.00;102304.69;2096461;28;20923;-67
2023/11/23 01:47:25;;;;;;;5.33;3.33;;;;;;;9.98;100.00;102180.56;2095186;28;21377;-67
2023/11/23 01:48:26;;;;;;;4.70;3.33;;;;;;;10.79;100.00;102299.97;2095643;28;20567;-67
2023/11/23 01:49:27;;;;;;;5.70;3.40;;;;;;;10.80;100.00;102293.22;2095783;28;20430;-67
2023/11/23 01:50:31;;;;;;;5.67;3.43;;;;;;;10.54;100.00;102247.25;2097344;28;20505;-67
2023/11/23 01:51:32;;;;;;;5.80;3.40;;;;;;;10.18;100.00;102212.31;2096455;28;20298;-67
2023/11/23 01:52:33;;;;;;;4.70;3.20;;;;;;;10.81;100.00;102300.38;2089062;28;20473;-67
2023/11/23 01:53:33;;;;;;;5.30;3.07;;;;;;;10.79;100.00;102303.53;2092730;28;20681;-67
2023/11/23 01:54:34;;;;;;;5.93;3.40;;;;;;;10.84;100.00;102297.59;2096266;28;20278;-67
2023/11/23 01:55:35;;;;;;;5.60;3.33;;;;;;;10.22;100.00;102210.34;2095713;28;20202;-67
2023/11/23 01:56:35;;;;;;;5.70;3.10;;;;;;;10.88;100.00;102292.88;2095622;28;20225;-67
2023/11/23 01:57:39;;;;;;;5.43;3.30;;;;;;;10.85;100.00;102296.41;2095822;28;20172;-67
2023/11/23 01:58:40;;;;;;;4.30;3.07;;;;;;;10.86;100.00;102286.91;2096757;28;20228;-67
2023/11/23 01:59:40;;;;;;;5.57;3.43;;;;;;;10.58;100.00;102242.50;2095676;28;20943;-67
2023/11/23 02:00:41;;;;;;;5.40;3.27;;;;;;;10.85;100.00;102287.28;2096342;28;20819;-67
2023/11/23 02:01:42;;;;;;;5.20;3.40;;;;;;;10.90;100.00;102296.03;2095713;28;20289;-67
2023/11/23 02:02:43;;;;;;;5.50;3.20;;;;;;;9.96;100.00;102155.25;2096233;28;20456;-67
2023/11/23 02:03:44;;;;;;;5.17;3.23;;;;;;;10.89;100.00;102290.88;2095837;28;20230;-67
2023/11/23 02:04:47;;;;;;;5.33;3.10;;;;;;;10.90;100.00;102286.91;2096115;28;20418;-67
2023/11/23 02:05:47;;;;;;;6.07;3.27;;;;;;;10.93;100.00;102286.13;2095558;28;20291;-67
2023/11/23 02:06:48;;;;;;;4.80;2.77;;;;;;;10.95;100.00;102287.31;2097039;28;20417;-67
2023/11/23 02:07:48;;;;;;;8.30;3.53;;;;;;;10.94;100.00;102284.94;2095670;28;20696;-67
2023/11/23 02:08:49;;;;;;;7.73;3.33;;;;;;;10.94;100.00;102294.06;2095821;28;20647;-67
2023/11/23 02:09:49;;;;;;;5.33;3.10;;;;;;;10.30;100.00;102187.00;2096514;28;20377;-67
2023/11/23 02:10:51;;;;;;;4.73;2.90;;;;;;;10.90;100.00;102298.78;2091743;28;20559;-67
2023/11/23 02:11:51;;;;;;;6.37;3.43;;;;;;;10.89;100.00;102297.22;2090025;28;20909;-68
2023/11/23 02:12:53;;;;;;;5.20;3.20;;;;;;;10.90;100.00;102315.44;2095510;28;20875;-67
2023/11/23 02:13:55;;;;;;;4.80;2.80;;;;;;;10.86;100.00;102297.22;2087884;28;20191;-67
2023/11/23 02:14:58;;;;;;;7.37;3.20;;;;;;;10.33;100.00;102218.66;2096334;28;20963;-67
2023/11/23 02:15:59;;;;;;;3.90;2.80;;;;;;;10.80;100.00;102298.78;2095451;28;20452;-67
2023/11/23 02:17:12;;;;;;;4.30;3.10;;;;;;;10.76;100.00;102295.22;2096280;28;20480;-67
2023/11/23 02:18:13;;;;;;;4.53;2.67;;;;;;;10.76;100.00;102282.13;2096316;28;20477;-67
2023/11/23 02:19:13;;;;;;;4.43;2.83;;;;;;;10.80;100.00;102279.34;2095525;28;20456;-67
2023/11/23 02:20:14;;;;;;;6.50;2.93;;;;;;;10.79;100.00;102273.03;2096473;28;20196;-67
2023/11/23 02:21:14;;;;;;;8.07;3.27;;;;;;;10.78;100.00;102270.66;2095981;28;20249;-67
2023/11/23 02:22:15;;;;;;;4.57;2.77;;;;;;;10.16;100.00;102170.38;2096502;28;20569;-67
2023/11/23 02:23:16;;;;;;;5.63;2.77;;;;;;;10.83;100.00;102271.06;2095701;28;20179;-67
2023/11/23 02:24:16;;;;;;;4.40;2.97;;;;;;;10.15;100.00;102159.66;2096018;28;20466;-67
2023/11/23 02:25:17;;;;;;;7.50;3.03;;;;;;;10.76;100.00;102267.50;2095017;28;20692;-67
2023/11/23 02:26:17;;;;;;;3.80;2.60;;;;;;;10.80;100.00;102280.16;2096250;28;20290;-67
2023/11/23 02:27:18;;;;;;;4.17;2.70;;;;;;;10.68;100.00;102283.31;2096363;28;20282;-67
2023/11/23 02:28:18;;;;;;;3.63;2.40;;;;;;;10.68;100.00;102280.53;2096216;28;20199;-67
2023/11/23 02:29:19;;;;;;;4.47;2.60;;;;;;;10.61;100.00;102280.50;2095533;28;20207;-67
2023/11/23 02:30:19;;;;;;;4.67;2.70;;;;;;;10.23;100.00;102217.47;2095480;28;20180;-67
2023/11/23 02:31:20;;;;;;;3.60;2.67;;;;;;;10.65;100.00;102288.88;2094995;28;20236;-67
2023/11/23 02:32:20;;;;;;;3.63;2.33;;;;;;;10.42;100.00;102255.13;2097068;28;20259;-67
2023/11/23 02:33:21;;;;;;;3.33;2.10;;;;;;;10.63;100.00;102294.78;2095719;28;20261;-67
2023/11/23 02:34:21;;;;;;;3.90;2.70;;;;;;;10.60;100.00;102292.00;2096053;28;20192;-67
2023/11/23 02:35:22;;;;;;;4.10;2.37;;;;;;;10.61;100.00;102286.06;2095984;28;20660;-67
2023/11/23 02:36:22;;;;;;;5.07;2.67;;;;;;;10.43;100.00;102284.44;2096080;28;20704;-67
2023/11/23 02:37:23;;;;;;;4.23;2.77;;;;;;;10.46;100.00;102289.97;2095491;28;20176;-67
2023/11/23 02:38:23;;;;;;;3.60;2.40;;;;;;;10.48;100.00;102290.41;2095565;28;20642;-66
2023/11/23 02:39:24;;;;;;;3.73;2.40;;;;;;;10.46;100.00;102294.75;2096457;28;20585;-67
2023/11/23 02:40:24;;;;;;;4.53;2.60;;;;;;;10.44;100.00;102294.31;2096221;28;20198;-67
2023/11/23 02:41:25;;;;;;;3.73;2.67;;;;;;;10.48;100.00;102287.63;2095682;28;20188;-67
2023/11/23 02:42:26;;;;;;;3.67;2.53;;;;;;;10.48;100.00;102300.69;2096220;28;20922;-67
2023/11/23 02:43:26;;;;;;;4.20;2.50;;;;;;;10.46;100.00;102298.28;2095818;28;20206;-67
2023/11/23 02:44:27;;;;;;;3.53;2.50;;;;;;;10.50;100.00;102292.78;2096032;28;20303;-67
2023/11/23 02:45:27;;;;;;;4.40;2.80;;;;;;;10.51;100.00;102297.13;2095939;28;20198;-67
2023/11/23 02:46:28;;;;;;;3.90;2.87;;;;;;;10.49;100.00;102297.53;2096255;28;20179;-67
2023/11/23 02:47:28;;;;;;;4.27;2.47;;;;;;;10.45;100.00;102293.94;2096779;28;20684;-66
2023/11/23 02:48:29;;;;;;;3.20;2.37;;;;;;;10.45;100.00;102296.72;2096318;28;20198;-67
2023/11/23 02:49:30;;;;;;;5.00;2.90;;;;;;;10.32;100.00;102276.09;2096879;28;20203;-67
2023/11/23 02:50:30;;;;;;;3.40;2.43;;;;;;;10.28;100.00;102296.66;2097705;28;20437;-67
2023/11/23 02:51:31;;;;;;;4.13;2.50;;;;;;;10.33;100.00;102302.63;2097173;28;20192;-67
2023/11/23 02:52:31;;;;;;;3.87;2.57;;;;;;;9.89;100.00;102229.97;2097273;28;20560;-67
2023/11/23 02:53:34;;;;;;;3.40;2.60;;;;;;;10.23;100.00;102286.75;2096892;28;20172;-67
2023/11/23 02:54:35;;;;;;;4.20;2.50;;;;;;;10.37;100.00;102300.66;2098132;28;20175;-67
2023/11/23 02:55:35;;;;;;;4.00;2.50;;;;;;;10.42;100.00;102296.69;2098396;28;21020;-67
2023/11/23 02:56:36;;;;;;;3.50;2.40;;;;;;;10.43;100.00;102304.63;2097748;28;20191;-66
2023/11/23 02:57:36;;;;;;;3.93;2.40;;;;;;;10.38;100.00;102305.00;2097561;28;20287;-67
2023/11/23 02:58:39;;;;;;;3.60;2.53;;;;;;;9.46;100.00;102158.19;2097233;28;20234;-67
2023/11/23 02:59:39;;;;;;;4.90;2.80;;;;;;;10.36;100.00;102310.13;2097378;28;20187;-67
2023/11/23 03:00:40;;;;;;;3.83;2.43;;;;;;;10.40;100.00;102312.94;2097462;28;20910;-67
2023/11/23 03:01:41;;;;;;;4.63;2.73;;;;;;;9.93;100.00;102233.56;2097330;28;20194;-66
2023/11/23 03:02:42;;;;;;;3.70;2.50;;;;;;;10.44;100.00;102311.75;2098367;28;20176;-67
2023/11/23 03:03:42;;;;;;;5.80;2.60;;;;;;;10.46;100.00;102317.69;2096962;28;20439;-67
2023/11/23 03:04:42;;;;;;;4.20;2.27;;;;;;;10.36;100.00;102306.59;2097599;28;20641;-68
2023/11/23 03:05:43;;;;;;;6.67;2.60;;;;;;;10.41;100.00;102323.63;2096491;28;20199;-67
2023/11/23 03:06:43;;;;;;;4.27;2.50;;;;;;;10.46;100.00;102312.16;2097361;28;20243;-67
2023/11/23 03:07:44;;;;;;;3.03;2.30;;;;;;;10.45;100.00;102310.56;2094242;28;20645;-67
2023/11/23 03:08:45;;;;;;;4.47;2.70;;;;;;;10.45;100.00;102315.34;2090456;28;20173;-66
2023/11/23 03:09:45;;;;;;;3.17;2.20;;;;;;;10.42;100.00;102314.13;2097331;28;20238;-67
2023/11/23 03:10:46;;;;;;;4.03;2.40;;;;;;;10.33;100.00;102305.38;2098293;28;20503;-66
2023/11/23 03:11:46;;;;;;;3.87;2.67;;;;;;;10.41;100.00;102328.38;2097439;28;20278;-67
2023/11/23 03:12:47;;;;;;;3.60;2.10;;;;;;;10.42;100.00;102321.66;2096912;28;20221;-67
2023/11/23 03:13:48;;;;;;;4.27;2.30;;;;;;;10.42;100.00;102321.66;2091575;28;20197;-67
2023/11/23 03:14:48;;;;;;;5.97;2.77;;;;;;;10.43;100.00;102317.69;2092437;28;20256;-67
2023/11/23 03:15:50;;;;;;;4.47;2.50;;;;;;;10.46;100.00;102325.22;2097300;28;20475;-67
2023/11/23 03:16:50;;;;;;;3.97;2.43;;;;;;;10.49;100.00;102316.91;2096236;28;20270;-67
2023/11/23 03:17:50;;;;;;;4.43;2.83;;;;;;;10.48;100.00;102315.34;2097680;28;20927;-66
2023/11/23 03:18:51;;;;;;;3.47;2.53;;;;;;;10.47;100.00;102316.53;2097317;28;20726;-67
2023/11/23 03:19:52;;;;;;;4.00;2.80;;;;;;;10.51;100.00;102305.44;2096308;28;20201;-66
2023/11/23 03:20:53;;;;;;;3.00;2.10;;;;;;;10.56;100.00;102308.63;2096931;28;20206;-67
2023/11/23 03:21:54;;;;;;;4.90;2.70;;;;;;;10.57;100.00;102304.69;2097501;28;20528;-66
2023/11/23 03:22:55;;;;;;;3.57;2.33;;;;;;;10.57;100.00;102303.88;2097147;28;20596;-67
2023/11/23 03:23:56;;;;;;;3.90;2.20;;;;;;;10.55;100.00;102309.81;2097156;28;20675;-67
2023/11/23 03:24:56;;;;;;;4.57;2.60;;;;;;;10.58;100.00;102311.81;2096946;28;20801;-67
2023/11/23 03:25:57;;;;;;;4.03;2.40;;;;;;;10.58;100.00;102314.59;2098174;28;20657;-67
2023/11/23 03:26:58;;;;;;;3.70;2.50;;;;;;;10.58;100.00;102305.47;2096478;28;20245;-67
2023/11/23 03:27:58;;;;;;;2.90;2.13;;;;;;;10.60;100.00;102312.19;2096850;28;20442;-67
2023/11/23 03:28:59;;;;;;;2.93;2.20;;;;;;;10.56;100.00;102302.28;2097098;28;20454;-67
2023/11/23 03:29:59;;;;;;;4.07;2.23;;;;;;;10.53;100.00;102303.06;2097320;28;20477;-66
2023/11/23 03:31:00;;;;;;;3.80;2.10;;;;;;;10.56;100.00;102302.28;2097039;28;20231;-67
2023/11/23 03:32:01;;;;;;;3.77;2.27;;;;;;;10.56;100.00;102308.63;2097264;28;20622;-67
2023/11/23 03:33:02;;;;;;;3.27;2.33;;;;;;;10.56;100.00;102307.84;2097246;28;20168;-67
2023/11/23 03:34:02;;;;;;;3.20;2.27;;;;;;;10.54;100.00;102310.19;2097050;28;20309;-67
2023/11/23 03:35:03;;;;;;;4.87;2.57;;;;;;;10.51;100.00;102306.22;2097232;28;20581;-67
2023/11/23 03:36:05;;;;;;;3.70;2.20;;;;;;;9.52;100.00;102151.09;2097331;28;20199;-67
2023/11/23 03:37:06;;;;;;;4.07;2.20;;;;;;;10.45;100.00;102310.56;2096732;28;20464;-67
2023/11/23 03:38:07;;;;;;;3.53;2.40;;;;;;;10.39;100.00;102317.69;2097050;28;20935;-67
2023/11/23 03:39:08;;;;;;;3.63;2.53;;;;;;;10.26;100.00;102299.03;2096563;28;20184;-67
2023/11/23 03:40:10;;;;;;;3.80;2.47;;;;;;;10.40;100.00;102326.78;2097292;28;20923;-67
2023/11/23 03:41:10;;;;;;;3.43;2.13;;;;;;;10.25;100.00;102328.69;2097162;28;20612;-67
2023/11/23 03:42:10;;;;;;;4.77;2.60;;;;;;;9.90;100.00;102275.84;2098057;28;20418;-67
2023/11/23 03:43:11;;;;;;;4.23;2.50;;;;;;;10.27;100.00;102328.31;2097279;28;20199;-67
2023/11/23 03:44:11;;;;;;;5.10;2.80;;;;;;;10.29;100.00;102329.50;2096975;28;20648;-67
2023/11/23 03:45:12;;;;;;;3.83;2.27;;;;;;;10.25;100.00;102336.22;2097081;28;20283;-67
2023/11/23 03:46:12;;;;;;;4.13;2.83;;;;;;;10.24;100.00;102329.88;2097161;28;20199;-67
2023/11/23 03:47:13;;;;;;;4.47;2.47;;;;;;;10.29;100.00;102331.47;2097106;28;20182;-67
2023/11/23 03:48:13;;;;;;;4.43;2.77;;;;;;;10.34;100.00;102337.44;2097154;28;20179;-67
2023/11/23 03:49:14;;;;;;;4.13;2.97;;;;;;;10.32;100.00;102331.53;2097486;28;20187;-67
2023/11/23 03:50:15;;;;;;;3.73;2.40;;;;;;;9.58;100.00;102216.75;2097269;28;20192;-67
2023/11/23 03:51:15;;;;;;;3.57;2.30;;;;;;;10.34;100.00;102337.44;2097192;28;20253;-67
2023/11/23 03:52:16;;;;;;;3.63;2.33;;;;;;;10.33;100.00;102335.06;2097140;28;20901;-67
2023/11/23 03:53:17;;;;;;;4.33;2.60;;;;;;;10.37;100.00;102333.09;2092450;28;20202;-67
2023/11/23 03:54:17;;;;;;;4.50;2.83;;;;;;;10.34;100.00;102333.88;2091434;28;20753;-67
2023/11/23 03:55:18;;;;;;;3.43;2.40;;;;;;;10.19;100.00;102321.16;2096628;28;20495;-67
2023/11/23 03:56:18;;;;;;;4.10;2.67;;;;;;;10.28;100.00;102321.59;2097051;28;20673;-67
2023/11/23 03:57:19;;;;;;;4.57;2.80;;;;;;;9.83;100.00;102252.88;2097769;28;20172;-66
2023/11/23 03:58:19;;;;;;;3.00;2.10;;;;;;;10.39;100.00;102339.03;2090006;28;20223;-67
2023/11/23 03:59:20;;;;;;;4.20;2.90;;;;;;;10.40;100.00;102349.75;2094118;28;20199;-67
2023/11/23 04:00:21;;;;;;;5.27;2.60;;;;;;;10.41;100.00;102353.31;2097038;28;20641;-66
2023/11/23 04:01:23;;;;;;;4.47;2.57;;;;;;;10.40;100.00;102357.28;2096537;28;20248;-67
2023/11/23 04:02:23;;;;;;;4.47;2.50;;;;;;;10.20;100.00;102331.84;2096926;28;20182;-67
2023/11/23 04:03:23;;;;;;;3.90;2.30;;;;;;;10.44;100.00;102369.97;2096336;28;20433;-67
2023/11/23 04:04:24;;;;;;;4.03;2.70;;;;;;;9.86;100.00;102274.25;2097739;28;20265;-67
2023/11/23 04:05:25;;;;;;;4.07;2.53;;;;;;;10.40;100.00;102369.16;2096961;28;20245;-67
2023/11/23 04:06:27;;;;;;;4.80;2.63;;;;;;;10.09;100.00;102319.91;2097243;28;20227;-67
2023/11/23 04:07:27;;;;;;;4.20;2.60;;;;;;;10.39;100.00;102366.75;2096803;28;20204;-67
2023/11/23 04:08:28;;;;;;;4.67;2.80;;;;;;;10.36;100.00;102370.31;2096880;28;20534;-67
2023/11/23 04:09:28;;;;;;;4.73;2.73;;;;;;;10.37;100.00;102367.16;2096176;28;20615;-67
2023/11/23 04:10:29;;;;;;;4.13;2.67;;;;;;;10.27;100.00;102356.81;2097086;28;20609;-67
2023/11/23 04:11:29;;;;;;;4.27;2.83;;;;;;;10.38;100.00;102368.75;2096231;28;20271;-67
2023/11/23 04:12:29;;;;;;;4.87;3.00;;;;;;;10.32;100.00;102381.41;2088856;28;20207;-67
2023/11/23 04:13:30;;;;;;;4.67;2.80;;;;;;;10.31;100.00;102374.25;2087863;28;20196;-67
2023/11/23 04:14:31;;;;;;;3.83;2.40;;;;;;;10.26;100.00;102385.69;2094299;28;20636;-67
2023/11/23 04:15:32;;;;;;;5.07;2.73;;;;;;;10.18;100.00;102383.28;2096353;28;20191;-67
2023/11/23 04:16:32;;;;;;;4.50;2.77;;;;;;;9.75;100.00;102317.72;2096226;28;20447;-67
2023/11/23 04:17:33;;;;;;;4.07;2.70;;;;;;;10.04;100.00;102372.13;2096743;28;20711;-67
2023/11/23 04:18:33;;;;;;;4.03;2.70;;;;;;;9.65;100.00;102324.78;2096582;28;20167;-67
2023/11/23 04:19:33;;;;;;;4.00;2.67;;;;;;;10.01;100.00;102393.06;2097200;28;20650;-68
2023/11/23 04:20:35;;;;;;;4.57;2.80;;;;;;;10.00;100.00;102387.91;2096683;28;20197;-67
2023/11/23 04:21:36;;;;;;;4.83;2.87;;;;;;;10.01;100.00;102398.59;2096710;28;20674;-67
2023/11/23 04:22:37;;;;;;;5.20;3.00;;;;;;;9.93;100.00;102391.41;2096797;28;20833;-67
2023/11/23 04:23:37;;;;;;;3.67;2.30;;;;;;;9.99;100.00;102392.63;2096089;28;20210;-66
2023/11/23 04:24:40;;;;;;;5.50;3.00;;;;;;;9.96;100.00;102381.53;2096545;28;20207;-67
2023/11/23 04:25:40;;;;;;;4.43;2.90;;;;;;;10.04;100.00;102397.06;2096654;28;20176;-67
2023/11/23 04:26:41;;;;;;;5.27;3.03;;;;;;;9.91;100.00;102371.63;2096507;28;20518;-67
2023/11/23 04:27:43;;;;;;;4.37;2.73;;;;;;;10.06;100.00;102392.72;2089366;28;20165;-67
2023/11/23 04:28:43;;;;;;;4.87;3.17;;;;;;;10.00;100.00;102390.69;2087757;28;20799;-67
2023/11/23 04:29:44;;;;;;;3.77;2.80;;;;;;;9.99;100.00;102394.63;2093697;28;20453;-67
2023/11/23 04:30:44;;;;;;;4.77;2.73;;;;;;;9.94;100.00;102401.31;2096809;28;20202;-67
2023/11/23 04:31:45;;;;;;;4.60;3.20;;;;;;;9.99;100.00;102400.16;2096694;28;20675;-67
2023/11/23 04:32:46;;;;;;;4.03;2.80;;;;;;;9.93;100.00;102405.25;2096735;28;20632;-66
2023/11/23 04:33:47;;;;;;;4.50;3.00;;;;;;;9.92;100.00;102402.88;2095723;28;20661;-66
2023/11/23 04:34:47;;;;;;;4.30;2.77;;;;;;;9.93;100.00;102402.50;2097564;28;21035;-67
2023/11/23 04:35:48;;;;;;;4.40;2.73;;;;;;;9.91;100.00;102404.88;2088893;28;20203;-66
2023/11/23 04:36:48;;;;;;;4.23;2.90;;;;;;;9.93;100.00;102429.38;2094663;28;20202;-67
2023/11/23 04:37:49;;;;;;;4.87;3.27;;;;;;;9.31;100.00;102316.97;2096831;28;20210;-67
2023/11/23 04:38:49;;;;;;;4.73;2.97;;;;;;;9.86;100.00;102402.44;2095952;28;20301;-67
2023/11/23 04:39:53;;;;;;;5.67;3.00;;;;;;;9.87;100.00;102412.34;2096088;28;20578;-67